sensor_id;sensor_type;location;lat;lon;timestamp;P1;durP1;ratioP1;P2;durP2;ratioP2
6902;SDS011;20232;49.408;8.702;2024-01-11T05:01:15;25.47;;;14.50;;
6902;SDS011;20232;49.408;8.702;2024-01-11T05:03:42;23.37;;;14.10;;
6902;SDS011;20232;49.408;8.702;2024-01-11T05:06:08;34.13;;;16.07;;
6902;SDS011;20232;49.408;8.702;2024-01-11T05:08:39;27.80;;;14.87;;
6902;SDS011;20232;49.408;8.702;2024-01-11T05:11:04;26.13;;;15.70;;
6902;SDS011;20232;49.408;8.702;2024-01-11T05:13:30;30.70;;;14.43;;
6902;SDS011;20232;49.408;8.702;2024-01-11T05:15:55;32.40;;;15.77;;
6902;SDS011;20232;49.408;8.702;2024-01-11T05:18:21;26.20;;;14.20;;
6902;SDS011;20232;49.408;8.702;2024-01-11T05:20:46;30.33;;;15.53;;
6902;SDS011;20232;49.408;8.702;2024-01-11T05:23:11;27.30;;;15.17;;
6902;SDS011;20232;49.408;8.702;2024-01-11T05:25:37;27.23;;;14.70;;
6902;SDS011;20232;49.408;8.702;2024-01-11T05:28:02;32.67;;;16.23;;
6902;SDS011;20232;49.408;8.702;2024-01-11T05:30:29;26.23;;;15.23;;
6902;SDS011;20232;49.408;8.702;2024-01-11T05:32:55;24.70;;;14.23;;
6902;SDS011;20232;49.408;8.702;2024-01-11T05:35:20;26.43;;;14.93;;
6902;SDS011;20232;49.408;8.702;2024-01-11T05:37:49;26.00;;;13.80;;
6902;SDS011;20232;49.408;8.702;2024-01-11T05:40:14;30.97;;;15.90;;
6902;SDS011;20232;49.408;8.702;2024-01-11T05:42:40;28.43;;;15.27;;
6902;SDS011;20232;49.408;8.702;2024-01-11T05:45:05;27.47;;;15.23;;
6902;SDS011;20232;49.408;8.702;2024-01-11T05:47:31;25.30;;;14.50;;
6902;SDS011;20232;49.408;8.702;2024-01-11T05:49:56;30.37;;;16.33;;
6902;SDS011;20232;49.408;8.702;2024-01-11T05:52:22;27.47;;;14.33;;
6902;SDS011;20232;49.408;8.702;2024-01-11T05:54:47;24.97;;;14.47;;
6902;SDS011;20232;49.408;8.702;2024-01-11T05:57:13;27.30;;;14.83;;
6902;SDS011;20232;49.408;8.702;2024-01-11T05:59:43;28.47;;;15.17;;
6902;SDS011;20232;49.408;8.702;2024-01-11T06:02:09;27.27;;;14.77;;
6902;SDS011;20232;49.408;8.702;2024-01-11T06:04:34;30.37;;;15.90;;
6902;SDS011;20232;49.408;8.702;2024-01-11T06:06:59;26.57;;;15.17;;
6902;SDS011;20232;49.408;8.702;2024-01-11T06:09:25;27.67;;;15.33;;
6902;SDS011;20232;49.408;8.702;2024-01-11T06:11:50;28.60;;;14.93;;
6902;SDS011;20232;49.408;8.702;2024-01-11T06:14:15;27.03;;;14.20;;
6902;SDS011;20232;49.408;8.702;2024-01-11T06:16:41;26.43;;;14.60;;
6902;SDS011;20232;49.408;8.702;2024-01-11T06:19:07;32.73;;;15.63;;
6902;SDS011;20232;49.408;8.702;2024-01-11T06:21:33;28.93;;;15.70;;
6902;SDS011;20232;49.408;8.702;2024-01-11T06:23:59;24.97;;;14.40;;
6902;SDS011;20232;49.408;8.702;2024-01-11T06:26:24;28.87;;;15.13;;
6902;SDS011;20232;49.408;8.702;2024-01-11T06:28:50;25.20;;;14.37;;
6902;SDS011;20232;49.408;8.702;2024-01-11T06:31:15;28.27;;;15.40;;
6902;SDS011;20232;49.408;8.702;2024-01-11T06:33:40;30.40;;;15.20;;
6902;SDS011;20232;49.408;8.702;2024-01-11T06:36:06;28.63;;;14.87;;
6902;SDS011;20232;49.408;8.702;2024-01-11T06:38:34;29.10;;;15.37;;
6902;SDS011;20232;49.408;8.702;2024-01-11T06:41:00;27.33;;;14.97;;
6902;SDS011;20232;49.408;8.702;2024-01-11T06:43:25;27.00;;;15.07;;
6902;SDS011;20232;49.408;8.702;2024-01-11T06:45:51;28.97;;;15.80;;
6902;SDS011;20232;49.408;8.702;2024-01-11T06:48:18;28.63;;;15.50;;
6902;SDS011;20232;49.408;8.702;2024-01-11T06:50:43;29.00;;;15.97;;
6902;SDS011;20232;49.408;8.702;2024-01-11T06:53:09;28.97;;;15.60;;
6902;SDS011;20232;49.408;8.702;2024-01-11T06:55:34;34.23;;;15.97;;
6902;SDS011;20232;49.408;8.702;2024-01-11T06:58:00;32.20;;;15.53;;
6902;SDS011;20232;49.408;8.702;2024-01-11T07:00:27;32.17;;;17.33;;
6902;SDS011;20232;49.408;8.702;2024-01-11T07:02:53;32.23;;;16.63;;
6902;SDS011;20232;49.408;8.702;2024-01-11T07:05:19;28.90;;;16.43;;
6902;SDS011;20232;49.408;8.702;2024-01-11T07:07:44;30.97;;;16.70;;
6902;SDS011;20232;49.408;8.702;2024-01-11T07:10:10;30.43;;;15.47;;
6902;SDS011;20232;49.408;8.702;2024-01-11T07:12:35;34.30;;;16.33;;
6902;SDS011;20232;49.408;8.702;2024-01-11T07:15:03;30.77;;;16.17;;
6902;SDS011;20232;49.408;8.702;2024-01-11T07:17:29;30.57;;;14.73;;
6902;SDS011;20232;49.408;8.702;2024-01-11T07:19:55;27.90;;;14.73;;
6902;SDS011;20232;49.408;8.702;2024-01-11T07:22:20;30.60;;;15.53;;
6902;SDS011;20232;49.408;8.702;2024-01-11T07:24:46;33.23;;;15.83;;
6902;SDS011;20232;49.408;8.702;2024-01-11T07:27:11;29.13;;;16.53;;
6902;SDS011;20232;49.408;8.702;2024-01-11T07:29:37;27.27;;;15.43;;
6902;SDS011;20232;49.408;8.702;2024-01-11T07:32:02;28.70;;;16.37;;
6902;SDS011;20232;49.408;8.702;2024-01-11T07:34:29;32.07;;;16.43;;
6902;SDS011;20232;49.408;8.702;2024-01-11T07:36:54;32.23;;;15.70;;
6902;SDS011;20232;49.408;8.702;2024-01-11T07:39:20;29.27;;;16.50;;
6902;SDS011;20232;49.408;8.702;2024-01-11T07:41:47;30.60;;;16.27;;
6902;SDS011;20232;49.408;8.702;2024-01-11T07:44:12;28.57;;;16.07;;
6902;SDS011;20232;49.408;8.702;2024-01-11T07:46:38;32.77;;;16.47;;
6902;SDS011;20232;49.408;8.702;2024-01-11T07:49:03;30.30;;;16.40;;
6902;SDS011;20232;49.408;8.702;2024-01-11T07:51:29;29.23;;;15.97;;
6902;SDS011;20232;49.408;8.702;2024-01-11T07:53:55;30.80;;;15.00;;
6902;SDS011;20232;49.408;8.702;2024-01-11T07:56:20;27.90;;;16.30;;
6902;SDS011;20232;49.408;8.702;2024-01-11T07:58:47;31.57;;;16.83;;
6902;SDS011;20232;49.408;8.702;2024-01-11T08:01:12;30.80;;;16.00;;
6902;SDS011;20232;49.408;8.702;2024-01-11T08:03:38;29.43;;;16.17;;
6902;SDS011;20232;49.408;8.702;2024-01-11T08:06:04;29.77;;;16.13;;
6902;SDS011;20232;49.408;8.702;2024-01-11T08:08:32;33.23;;;16.23;;
6902;SDS011;20232;49.408;8.702;2024-01-11T08:10:58;32.20;;;16.63;;
6902;SDS011;20232;49.408;8.702;2024-01-11T08:13:24;31.80;;;16.83;;
6902;SDS011;20232;49.408;8.702;2024-01-11T08:15:49;36.07;;;17.63;;
6902;SDS011;20232;49.408;8.702;2024-01-11T08:18:15;41.23;;;18.10;;
6902;SDS011;20232;49.408;8.702;2024-01-11T08:20:40;34.53;;;17.03;;
6902;SDS011;20232;49.408;8.702;2024-01-11T08:23:05;28.83;;;17.17;;
6902;SDS011;20232;49.408;8.702;2024-01-11T08:25:31;32.43;;;17.87;;
6902;SDS011;20232;49.408;8.702;2024-01-11T08:27:57;33.33;;;17.30;;
6902;SDS011;20232;49.408;8.702;2024-01-11T08:30:22;33.07;;;17.93;;
6902;SDS011;20232;49.408;8.702;2024-01-11T08:32:48;36.87;;;18.27;;
6902;SDS011;20232;49.408;8.702;2024-01-11T08:35:13;39.93;;;19.13;;
6902;SDS011;20232;49.408;8.702;2024-01-11T08:37:39;33.43;;;18.13;;
6902;SDS011;20232;49.408;8.702;2024-01-11T08:40:05;35.83;;;18.50;;
6902;SDS011;20232;49.408;8.702;2024-01-11T08:42:31;37.57;;;18.67;;
6902;SDS011;20232;49.408;8.702;2024-01-11T08:44:57;37.23;;;19.27;;
6902;SDS011;20232;49.408;8.702;2024-01-11T08:47:22;37.27;;;19.00;;
6902;SDS011;20232;49.408;8.702;2024-01-11T08:49:48;39.80;;;19.27;;
6902;SDS011;20232;49.408;8.702;2024-01-11T08:52:14;35.33;;;18.67;;
6902;SDS011;20232;49.408;8.702;2024-01-11T08:54:39;39.67;;;18.90;;
6902;SDS011;20232;49.408;8.702;2024-01-11T08:57:05;36.17;;;18.20;;
6902;SDS011;20232;49.408;8.702;2024-01-11T08:59:30;32.93;;;18.20;;
6902;SDS011;20232;49.408;8.702;2024-01-11T09:01:56;29.53;;;18.77;;
6902;SDS011;20232;49.408;8.702;2024-01-11T09:04:21;34.43;;;17.67;;
6902;SDS011;20232;49.408;8.702;2024-01-11T09:06:46;34.97;;;18.87;;
6902;SDS011;20232;49.408;8.702;2024-01-11T09:09:12;36.17;;;19.13;;
6902;SDS011;20232;49.408;8.702;2024-01-11T09:11:41;37.73;;;18.23;;
6902;SDS011;20232;49.408;8.702;2024-01-11T09:14:07;30.87;;;17.23;;
6902;SDS011;20232;49.408;8.702;2024-01-11T09:16:32;36.40;;;18.43;;
6902;SDS011;20232;49.408;8.702;2024-01-11T09:18:58;35.63;;;18.47;;
6902;SDS011;20232;49.408;8.702;2024-01-11T09:21:25;32.93;;;18.77;;
6902;SDS011;20232;49.408;8.702;2024-01-11T09:23:51;35.17;;;18.80;;
6902;SDS011;20232;49.408;8.702;2024-01-11T09:26:17;36.13;;;18.93;;
6902;SDS011;20232;49.408;8.702;2024-01-11T09:28:42;38.93;;;18.40;;
6902;SDS011;20232;49.408;8.702;2024-01-11T09:31:07;32.27;;;18.83;;
6902;SDS011;20232;49.408;8.702;2024-01-11T09:33:33;34.33;;;18.70;;
6902;SDS011;20232;49.408;8.702;2024-01-11T09:35:59;34.17;;;17.10;;
6902;SDS011;20232;49.408;8.702;2024-01-11T09:38:24;32.03;;;17.27;;
6902;SDS011;20232;49.408;8.702;2024-01-11T09:41:02;31.57;;;16.83;;
6902;SDS011;20232;49.408;8.702;2024-01-11T09:43:33;37.40;;;17.77;;
6902;SDS011;20232;49.408;8.702;2024-01-11T09:46:00;28.93;;;16.70;;
6902;SDS011;20232;49.408;8.702;2024-01-11T09:48:32;34.70;;;17.53;;
6902;SDS011;20232;49.408;8.702;2024-01-11T09:51:02;33.10;;;17.70;;
6902;SDS011;20232;49.408;8.702;2024-01-11T09:53:31;31.80;;;18.23;;
6902;SDS011;20232;49.408;8.702;2024-01-11T09:55:58;34.60;;;18.40;;
6902;SDS011;20232;49.408;8.702;2024-01-11T09:58:23;38.77;;;20.90;;
6902;SDS011;20232;49.408;8.702;2024-01-11T10:00:49;35.90;;;18.97;;
6902;SDS011;20232;49.408;8.702;2024-01-11T10:03:19;40.43;;;20.97;;
6902;SDS011;20232;49.408;8.702;2024-01-11T10:05:45;32.77;;;19.80;;
6902;SDS011;20232;49.408;8.702;2024-01-11T10:08:11;38.03;;;18.93;;
6902;SDS011;20232;49.408;8.702;2024-01-11T10:10:37;37.20;;;19.73;;
6902;SDS011;20232;49.408;8.702;2024-01-11T10:13:02;35.43;;;19.93;;
6902;SDS011;20232;49.408;8.702;2024-01-11T10:15:28;42.53;;;20.53;;
6902;SDS011;20232;49.408;8.702;2024-01-11T10:17:53;41.53;;;22.40;;
6902;SDS011;20232;49.408;8.702;2024-01-11T10:20:19;34.90;;;19.87;;
6902;SDS011;20232;49.408;8.702;2024-01-11T10:22:49;37.33;;;20.23;;
6902;SDS011;20232;49.408;8.702;2024-01-11T10:25:15;41.90;;;21.60;;
6902;SDS011;20232;49.408;8.702;2024-01-11T10:27:41;38.83;;;21.83;;
6902;SDS011;20232;49.408;8.702;2024-01-11T10:30:08;40.63;;;20.80;;
6902;SDS011;20232;49.408;8.702;2024-01-11T10:32:35;36.40;;;20.23;;
6902;SDS011;20232;49.408;8.702;2024-01-11T10:35:04;38.73;;;20.47;;
6902;SDS011;20232;49.408;8.702;2024-01-11T10:37:30;43.77;;;19.80;;
6902;SDS011;20232;49.408;8.702;2024-01-11T10:39:58;41.60;;;20.67;;
6902;SDS011;20232;49.408;8.702;2024-01-11T10:42:24;38.77;;;20.13;;
6902;SDS011;20232;49.408;8.702;2024-01-11T10:44:49;37.93;;;20.60;;
6902;SDS011;20232;49.408;8.702;2024-01-11T10:47:21;37.80;;;20.67;;
6902;SDS011;20232;49.408;8.702;2024-01-11T10:49:47;36.33;;;19.93;;
6902;SDS011;20232;49.408;8.702;2024-01-11T10:52:15;34.83;;;18.27;;
6902;SDS011;20232;49.408;8.702;2024-01-11T10:54:46;37.87;;;21.37;;
6902;SDS011;20232;49.408;8.702;2024-01-11T10:57:12;38.60;;;20.10;;
6902;SDS011;20232;49.408;8.702;2024-01-11T10:59:38;39.77;;;20.67;;
6902;SDS011;20232;49.408;8.702;2024-01-11T11:02:05;37.03;;;19.90;;
6902;SDS011;20232;49.408;8.702;2024-01-11T11:04:37;39.63;;;20.43;;
6902;SDS011;20232;49.408;8.702;2024-01-11T11:07:03;43.57;;;20.70;;
6902;SDS011;20232;49.408;8.702;2024-01-11T11:09:32;41.47;;;21.20;;
6902;SDS011;20232;49.408;8.702;2024-01-11T11:12:00;39.20;;;20.60;;
6902;SDS011;20232;49.408;8.702;2024-01-11T11:14:25;40.00;;;21.30;;
6902;SDS011;20232;49.408;8.702;2024-01-11T11:16:53;44.27;;;20.40;;
6902;SDS011;20232;49.408;8.702;2024-01-11T11:19:19;38.13;;;19.50;;
6902;SDS011;20232;49.408;8.702;2024-01-11T11:21:45;39.87;;;20.50;;
6902;SDS011;20232;49.408;8.702;2024-01-11T11:24:11;40.70;;;20.77;;
6902;SDS011;20232;49.408;8.702;2024-01-11T11:26:37;37.07;;;21.23;;
6902;SDS011;20232;49.408;8.702;2024-01-11T11:29:03;44.30;;;22.00;;
6902;SDS011;20232;49.408;8.702;2024-01-11T11:31:36;38.67;;;20.97;;
6902;SDS011;20232;49.408;8.702;2024-01-11T11:34:03;41.93;;;20.70;;
6902;SDS011;20232;49.408;8.702;2024-01-11T11:36:29;33.93;;;19.20;;
6902;SDS011;20232;49.408;8.702;2024-01-11T11:38:58;37.87;;;20.03;;
6902;SDS011;20232;49.408;8.702;2024-01-11T11:41:34;41.63;;;21.30;;
6902;SDS011;20232;49.408;8.702;2024-01-11T11:44:04;36.70;;;19.13;;
6902;SDS011;20232;49.408;8.702;2024-01-11T11:46:31;38.77;;;20.77;;
6902;SDS011;20232;49.408;8.702;2024-01-11T11:48:57;39.67;;;20.07;;
6902;SDS011;20232;49.408;8.702;2024-01-11T11:51:23;43.43;;;21.33;;
6902;SDS011;20232;49.408;8.702;2024-01-11T11:53:49;38.47;;;19.83;;
6902;SDS011;20232;49.408;8.702;2024-01-11T11:56:19;35.50;;;19.33;;
6902;SDS011;20232;49.408;8.702;2024-01-11T11:58:45;40.67;;;19.80;;
6902;SDS011;20232;49.408;8.702;2024-01-11T12:01:14;35.33;;;20.27;;
6902;SDS011;20232;49.408;8.702;2024-01-11T12:03:40;39.20;;;20.60;;
6902;SDS011;20232;49.408;8.702;2024-01-11T12:06:07;38.10;;;21.33;;
6902;SDS011;20232;49.408;8.702;2024-01-11T12:08:35;39.93;;;21.10;;
6902;SDS011;20232;49.408;8.702;2024-01-11T12:11:01;37.77;;;21.43;;
6902;SDS011;20232;49.408;8.702;2024-01-11T12:13:26;41.37;;;21.20;;
6902;SDS011;20232;49.408;8.702;2024-01-11T12:15:52;41.73;;;22.30;;
6902;SDS011;20232;49.408;8.702;2024-01-11T12:18:18;39.07;;;20.60;;
6902;SDS011;20232;49.408;8.702;2024-01-11T12:20:44;41.47;;;23.10;;
6902;SDS011;20232;49.408;8.702;2024-01-11T12:23:09;38.17;;;22.63;;
6902;SDS011;20232;49.408;8.702;2024-01-11T12:25:35;43.67;;;21.37;;
6902;SDS011;20232;49.408;8.702;2024-01-11T12:28:01;41.33;;;22.17;;
6902;SDS011;20232;49.408;8.702;2024-01-11T12:30:27;45.17;;;21.60;;
6902;SDS011;20232;49.408;8.702;2024-01-11T12:32:53;45.77;;;23.23;;
6902;SDS011;20232;49.408;8.702;2024-01-11T12:35:19;47.27;;;23.90;;
6902;SDS011;20232;49.408;8.702;2024-01-11T12:37:55;44.53;;;23.40;;
6902;SDS011;20232;49.408;8.702;2024-01-11T12:40:23;43.37;;;23.40;;
6902;SDS011;20232;49.408;8.702;2024-01-11T12:42:49;46.87;;;23.73;;
6902;SDS011;20232;49.408;8.702;2024-01-11T12:45:15;47.23;;;23.93;;
6902;SDS011;20232;49.408;8.702;2024-01-11T12:47:42;40.50;;;22.53;;
6902;SDS011;20232;49.408;8.702;2024-01-11T12:50:08;49.90;;;24.90;;
6902;SDS011;20232;49.408;8.702;2024-01-11T12:52:34;42.87;;;23.73;;
6902;SDS011;20232;49.408;8.702;2024-01-11T12:54:59;42.93;;;23.10;;
6902;SDS011;20232;49.408;8.702;2024-01-11T12:57:25;44.87;;;23.30;;
6902;SDS011;20232;49.408;8.702;2024-01-11T12:59:50;44.97;;;23.17;;
6902;SDS011;20232;49.408;8.702;2024-01-11T13:02:16;45.00;;;24.13;;
6902;SDS011;20232;49.408;8.702;2024-01-11T13:04:45;44.50;;;22.97;;
6902;SDS011;20232;49.408;8.702;2024-01-11T13:07:11;48.53;;;24.73;;
6902;SDS011;20232;49.408;8.702;2024-01-11T13:09:38;43.93;;;23.23;;
6902;SDS011;20232;49.408;8.702;2024-01-11T13:12:04;44.07;;;24.33;;
6902;SDS011;20232;49.408;8.702;2024-01-11T13:14:30;45.20;;;24.50;;
6902;SDS011;20232;49.408;8.702;2024-01-11T13:16:56;40.40;;;23.37;;
6902;SDS011;20232;49.408;8.702;2024-01-11T13:19:21;44.73;;;22.93;;
6902;SDS011;20232;49.408;8.702;2024-01-11T13:21:47;40.97;;;22.13;;
6902;SDS011;20232;49.408;8.702;2024-01-11T13:24:12;43.73;;;23.30;;
6902;SDS011;20232;49.408;8.702;2024-01-11T13:26:38;48.40;;;23.97;;
6902;SDS011;20232;49.408;8.702;2024-01-11T13:29:04;49.77;;;25.20;;
6902;SDS011;20232;49.408;8.702;2024-01-11T13:31:30;46.87;;;22.83;;
6902;SDS011;20232;49.408;8.702;2024-01-11T13:33:56;49.43;;;24.40;;
6902;SDS011;20232;49.408;8.702;2024-01-11T13:36:22;43.43;;;24.53;;
6902;SDS011;20232;49.408;8.702;2024-01-11T13:38:47;48.03;;;23.13;;
6902;SDS011;20232;49.408;8.702;2024-01-11T13:41:14;48.13;;;25.13;;
6902;SDS011;20232;49.408;8.702;2024-01-11T13:43:41;46.73;;;22.70;;
6902;SDS011;20232;49.408;8.702;2024-01-11T13:46:06;42.27;;;22.10;;
6902;SDS011;20232;49.408;8.702;2024-01-11T13:48:32;44.23;;;23.73;;
6902;SDS011;20232;49.408;8.702;2024-01-11T13:50:58;46.10;;;23.97;;
6902;SDS011;20232;49.408;8.702;2024-01-11T13:53:24;46.23;;;22.77;;
6902;SDS011;20232;49.408;8.702;2024-01-11T13:55:50;47.53;;;23.27;;
6902;SDS011;20232;49.408;8.702;2024-01-11T13:58:16;50.33;;;24.27;;
6902;SDS011;20232;49.408;8.702;2024-01-11T14:00:43;42.47;;;22.97;;
6902;SDS011;20232;49.408;8.702;2024-01-11T14:03:08;44.27;;;23.67;;
6902;SDS011;20232;49.408;8.702;2024-01-11T14:05:36;49.10;;;23.00;;
6902;SDS011;20232;49.408;8.702;2024-01-11T14:08:02;42.97;;;22.63;;
6902;SDS011;20232;49.408;8.702;2024-01-11T14:10:30;41.47;;;22.43;;
6902;SDS011;20232;49.408;8.702;2024-01-11T14:12:57;44.33;;;24.10;;
6902;SDS011;20232;49.408;8.702;2024-01-11T14:15:24;41.77;;;21.90;;
6902;SDS011;20232;49.408;8.702;2024-01-11T14:17:50;47.50;;;22.77;;
6902;SDS011;20232;49.408;8.702;2024-01-11T14:20:16;44.10;;;23.17;;
6902;SDS011;20232;49.408;8.702;2024-01-11T14:22:41;45.07;;;21.57;;
6902;SDS011;20232;49.408;8.702;2024-01-11T14:25:08;43.27;;;22.43;;
6902;SDS011;20232;49.408;8.702;2024-01-11T14:27:36;45.00;;;22.23;;
6902;SDS011;20232;49.408;8.702;2024-01-11T14:30:01;43.23;;;22.13;;
6902;SDS011;20232;49.408;8.702;2024-01-11T14:32:30;40.87;;;22.97;;
6902;SDS011;20232;49.408;8.702;2024-01-11T14:34:55;44.50;;;22.03;;
6902;SDS011;20232;49.408;8.702;2024-01-11T14:37:21;44.00;;;23.13;;
6902;SDS011;20232;49.408;8.702;2024-01-11T14:39:46;46.03;;;22.23;;
6902;SDS011;20232;49.408;8.702;2024-01-11T14:42:11;43.60;;;22.20;;
6902;SDS011;20232;49.408;8.702;2024-01-11T14:44:37;45.90;;;23.27;;
6902;SDS011;20232;49.408;8.702;2024-01-11T14:47:02;43.50;;;23.27;;
6902;SDS011;20232;49.408;8.702;2024-01-11T14:49:28;43.80;;;24.77;;
6902;SDS011;20232;49.408;8.702;2024-01-11T14:51:54;42.10;;;23.70;;
6902;SDS011;20232;49.408;8.702;2024-01-11T14:54:20;40.77;;;23.20;;
6902;SDS011;20232;49.408;8.702;2024-01-11T14:56:46;42.20;;;22.83;;
6902;SDS011;20232;49.408;8.702;2024-01-11T14:59:11;39.67;;;22.00;;
6902;SDS011;20232;49.408;8.702;2024-01-11T15:01:37;44.53;;;23.43;;
6902;SDS011;20232;49.408;8.702;2024-01-11T15:04:02;46.80;;;22.50;;
6902;SDS011;20232;49.408;8.702;2024-01-11T15:06:27;44.37;;;22.37;;
6902;SDS011;20232;49.408;8.702;2024-01-11T15:08:53;45.80;;;22.40;;
6902;SDS011;20232;49.408;8.702;2024-01-11T15:11:18;42.33;;;22.17;;
6902;SDS011;20232;49.408;8.702;2024-01-11T15:13:44;43.47;;;22.87;;
6902;SDS011;20232;49.408;8.702;2024-01-11T15:16:09;44.93;;;22.60;;
6902;SDS011;20232;49.408;8.702;2024-01-11T15:18:35;39.23;;;21.87;;
6902;SDS011;20232;49.408;8.702;2024-01-11T15:21:00;40.03;;;21.60;;
6902;SDS011;20232;49.408;8.702;2024-01-11T15:23:26;40.53;;;21.27;;
6902;SDS011;20232;49.408;8.702;2024-01-11T15:25:51;42.47;;;22.57;;
6902;SDS011;20232;49.408;8.702;2024-01-11T15:28:17;42.07;;;22.43;;
6902;SDS011;20232;49.408;8.702;2024-01-11T15:30:43;44.17;;;21.73;;
6902;SDS011;20232;49.408;8.702;2024-01-11T15:33:08;40.73;;;22.53;;
6902;SDS011;20232;49.408;8.702;2024-01-11T15:35:33;39.23;;;21.67;;
6902;SDS011;20232;49.408;8.702;2024-01-11T15:37:59;43.23;;;23.57;;
6902;SDS011;20232;49.408;8.702;2024-01-11T15:40:24;41.57;;;22.00;;
6902;SDS011;20232;49.408;8.702;2024-01-11T15:42:49;40.80;;;21.87;;
6902;SDS011;20232;49.408;8.702;2024-01-11T15:45:15;42.80;;;21.43;;
6902;SDS011;20232;49.408;8.702;2024-01-11T15:47:40;38.97;;;21.83;;
6902;SDS011;20232;49.408;8.702;2024-01-11T15:50:06;42.67;;;23.00;;
6902;SDS011;20232;49.408;8.702;2024-01-11T15:52:36;41.57;;;22.83;;
6902;SDS011;20232;49.408;8.702;2024-01-11T15:55:02;41.33;;;22.20;;
6902;SDS011;20232;49.408;8.702;2024-01-11T15:57:28;40.90;;;21.57;;
6902;SDS011;20232;49.408;8.702;2024-01-11T15:59:55;41.40;;;22.33;;
6902;SDS011;20232;49.408;8.702;2024-01-11T16:02:20;44.57;;;22.00;;
6902;SDS011;20232;49.408;8.702;2024-01-11T16:04:46;38.03;;;21.90;;
6902;SDS011;20232;49.408;8.702;2024-01-11T16:07:12;42.30;;;22.27;;
6902;SDS011;20232;49.408;8.702;2024-01-11T16:09:37;42.87;;;22.70;;
6902;SDS011;20232;49.408;8.702;2024-01-11T16:12:03;41.93;;;21.50;;
6902;SDS011;20232;49.408;8.702;2024-01-11T16:14:29;41.50;;;20.80;;
6902;SDS011;20232;49.408;8.702;2024-01-11T16:16:54;41.17;;;21.33;;
6902;SDS011;20232;49.408;8.702;2024-01-11T16:19:19;41.50;;;20.23;;
6902;SDS011;20232;49.408;8.702;2024-01-11T16:21:45;41.77;;;21.57;;
6902;SDS011;20232;49.408;8.702;2024-01-11T16:24:10;36.97;;;21.00;;
6902;SDS011;20232;49.408;8.702;2024-01-11T16:26:35;37.40;;;20.07;;
6902;SDS011;20232;49.408;8.702;2024-01-11T16:29:01;43.10;;;20.93;;
6902;SDS011;20232;49.408;8.702;2024-01-11T16:31:26;37.10;;;20.07;;
6902;SDS011;20232;49.408;8.702;2024-01-11T16:33:54;42.57;;;21.73;;
6902;SDS011;20232;49.408;8.702;2024-01-11T16:36:19;36.97;;;18.63;;
6902;SDS011;20232;49.408;8.702;2024-01-11T16:38:45;39.37;;;21.63;;
6902;SDS011;20232;49.408;8.702;2024-01-11T16:41:11;44.70;;;24.40;;
6902;SDS011;20232;49.408;8.702;2024-01-11T16:43:36;39.70;;;22.57;;
6902;SDS011;20232;49.408;8.702;2024-01-11T16:46:01;38.90;;;20.43;;
6902;SDS011;20232;49.408;8.702;2024-01-11T16:48:27;33.03;;;18.37;;
6902;SDS011;20232;49.408;8.702;2024-01-11T16:50:54;39.77;;;21.37;;
6902;SDS011;20232;49.408;8.702;2024-01-11T16:53:20;40.57;;;20.27;;
6902;SDS011;20232;49.408;8.702;2024-01-11T16:55:46;38.27;;;20.70;;
6902;SDS011;20232;49.408;8.702;2024-01-11T16:58:12;41.07;;;21.43;;
6902;SDS011;20232;49.408;8.702;2024-01-11T17:00:38;34.47;;;20.40;;
6902;SDS011;20232;49.408;8.702;2024-01-11T17:03:04;41.77;;;20.97;;
6902;SDS011;20232;49.408;8.702;2024-01-11T17:05:29;32.13;;;17.73;;
6902;SDS011;20232;49.408;8.702;2024-01-11T17:07:55;37.00;;;19.47;;
6902;SDS011;20232;49.408;8.702;2024-01-11T17:10:20;33.23;;;19.00;;
6902;SDS011;20232;49.408;8.702;2024-01-11T17:12:46;37.47;;;21.40;;
6902;SDS011;20232;49.408;8.702;2024-01-11T17:15:11;33.30;;;20.20;;
6902;SDS011;20232;49.408;8.702;2024-01-11T17:17:38;36.90;;;19.73;;
6902;SDS011;20232;49.408;8.702;2024-01-11T17:20:04;39.43;;;21.97;;
6902;SDS011;20232;49.408;8.702;2024-01-11T17:22:31;36.83;;;21.10;;
6902;SDS011;20232;49.408;8.702;2024-01-11T17:24:56;35.80;;;19.53;;
6902;SDS011;20232;49.408;8.702;2024-01-11T17:27:23;33.40;;;17.57;;
6902;SDS011;20232;49.408;8.702;2024-01-11T17:29:48;38.93;;;20.43;;
6902;SDS011;20232;49.408;8.702;2024-01-11T17:32:14;45.00;;;21.43;;
6902;SDS011;20232;49.408;8.702;2024-01-11T17:34:39;42.87;;;21.63;;
6902;SDS011;20232;49.408;8.702;2024-01-11T17:37:05;36.83;;;20.67;;
6902;SDS011;20232;49.408;8.702;2024-01-11T17:39:30;39.10;;;20.77;;
6902;SDS011;20232;49.408;8.702;2024-01-11T17:41:56;37.07;;;20.57;;
6902;SDS011;20232;49.408;8.702;2024-01-11T17:44:25;41.97;;;21.27;;
6902;SDS011;20232;49.408;8.702;2024-01-11T17:46:51;35.70;;;18.57;;
6902;SDS011;20232;49.408;8.702;2024-01-11T17:49:18;38.77;;;19.30;;
6902;SDS011;20232;49.408;8.702;2024-01-11T17:51:44;34.57;;;18.27;;
6902;SDS011;20232;49.408;8.702;2024-01-11T17:54:11;30.33;;;18.17;;
6902;SDS011;20232;49.408;8.702;2024-01-11T17:56:39;30.80;;;16.17;;
6902;SDS011;20232;49.408;8.702;2024-01-11T17:59:08;31.30;;;17.63;;
6902;SDS011;20232;49.408;8.702;2024-01-11T18:01:34;30.97;;;17.37;;
6902;SDS011;20232;49.408;8.702;2024-01-11T18:04:04;31.60;;;17.63;;
6902;SDS011;20232;49.408;8.702;2024-01-11T18:06:31;33.30;;;17.17;;
6902;SDS011;20232;49.408;8.702;2024-01-11T18:08:57;34.17;;;18.10;;
6902;SDS011;20232;49.408;8.702;2024-01-11T18:11:22;33.53;;;17.33;;
6902;SDS011;20232;49.408;8.702;2024-01-11T18:14:10;32.73;;;17.40;;
6902;SDS011;20232;49.408;8.702;2024-01-11T18:16:36;28.07;;;17.10;;
6902;SDS011;20232;49.408;8.702;2024-01-11T18:19:01;36.90;;;19.27;;
6902;SDS011;20232;49.408;8.702;2024-01-11T18:21:26;36.50;;;18.90;;
6902;SDS011;20232;49.408;8.702;2024-01-11T18:23:53;36.10;;;18.67;;
6902;SDS011;20232;49.408;8.702;2024-01-11T18:26:19;36.33;;;18.30;;
6902;SDS011;20232;49.408;8.702;2024-01-11T18:28:44;32.63;;;17.57;;
6902;SDS011;20232;49.408;8.702;2024-01-11T18:31:13;33.03;;;18.57;;
6902;SDS011;20232;49.408;8.702;2024-01-11T18:33:39;35.73;;;18.13;;
6902;SDS011;20232;49.408;8.702;2024-01-11T18:36:05;31.43;;;17.00;;
6902;SDS011;20232;49.408;8.702;2024-01-11T18:38:31;28.33;;;16.33;;
6902;SDS011;20232;49.408;8.702;2024-01-11T18:40:56;30.60;;;17.73;;
6902;SDS011;20232;49.408;8.702;2024-01-11T18:43:21;27.13;;;14.97;;
6902;SDS011;20232;49.408;8.702;2024-01-11T18:45:47;27.70;;;14.50;;
6902;SDS011;20232;49.408;8.702;2024-01-11T18:48:12;27.70;;;15.53;;
6902;SDS011;20232;49.408;8.702;2024-01-11T18:50:38;28.67;;;16.20;;
6902;SDS011;20232;49.408;8.702;2024-01-11T18:53:04;30.57;;;15.33;;
6902;SDS011;20232;49.408;8.702;2024-01-11T18:55:30;33.73;;;17.33;;
6902;SDS011;20232;49.408;8.702;2024-01-11T18:57:56;28.90;;;15.57;;
6902;SDS011;20232;49.408;8.702;2024-01-11T19:00:21;24.47;;;15.07;;
6902;SDS011;20232;49.408;8.702;2024-01-11T19:02:46;25.53;;;14.60;;
6902;SDS011;20232;49.408;8.702;2024-01-11T19:05:14;34.63;;;16.60;;
6902;SDS011;20232;49.408;8.702;2024-01-11T19:07:42;26.20;;;15.53;;
6902;SDS011;20232;49.408;8.702;2024-01-11T19:10:08;23.53;;;13.70;;
6902;SDS011;20232;49.408;8.702;2024-01-11T19:12:35;25.90;;;14.00;;
6902;SDS011;20232;49.408;8.702;2024-01-11T19:15:00;25.40;;;15.63;;
6902;SDS011;20232;49.408;8.702;2024-01-11T19:17:26;30.43;;;15.27;;
6902;SDS011;20232;49.408;8.702;2024-01-11T19:19:52;25.73;;;14.17;;
6902;SDS011;20232;49.408;8.702;2024-01-11T19:22:17;21.77;;;13.17;;
6902;SDS011;20232;49.408;8.702;2024-01-11T19:24:42;23.23;;;13.00;;
6902;SDS011;20232;49.408;8.702;2024-01-11T19:27:08;24.27;;;13.00;;